Time;durP1;ratioP1;P1;durP2;ratioP2;P2;SDS_P1;SDS_P2;PMS_P1;PMS_P2;Temp;Humidity;BMP_temperature;BMP_pressure;BME280_temperature;BME280_humidity;BME280_pressure;Samples;Min_cycle;Max_cycle;Signal;HPM_P1;HPM_P2
2022/09/21 00:01:05;;;;;;;2.92;2.13;;;7.00;99.90;;;;;;5031035;28;20240;-79
2022/09/21 00:03:31;;;;;;;1.98;1.80;;;6.90;99.90;;;;;;5029780;28;20202;-79
2022/09/21 00:06:02;;;;;;;1.73;1.60;;;6.90;99.90;;;;;;5033895;28;20201;-79
2022/09/21 00:08:29;;;;;;;2.70;2.50;;;7.30;99.90;;;;;;5030846;28;20208;-79
2022/09/21 00:10:56;;;;;;;1.58;1.48;;;7.30;99.90;;;;;;5031460;28;20284;-79
2022/09/21 00:13:23;;;;;;;2.92;1.40;;;7.30;99.90;;;;;;5031645;28;20203;-80
2022/09/21 00:15:51;;;;;;;2.55;2.03;;;7.20;99.90;;;;;;5032961;28;20678;-79
2022/09/21 00:18:18;;;;;;;2.45;2.25;;;7.30;99.90;;;;;;5030341;28;20287;-79
2022/09/21 00:20:45;;;;;;;1.63;1.52;;;7.20;99.90;;;;;;5031578;28;20284;-80
2022/09/21 00:23:12;;;;;;;2.78;1.48;;;7.00;99.90;;;;;;5033216;28;20196;-79
2022/09/21 00:25:39;;;;;;;2.50;2.00;;;7.00;99.90;;;;;;5033234;28;20223;-79
2022/09/21 00:28:05;;;;;;;3.15;2.15;;;7.00;99.90;;;;;;5034008;28;20290;-79
2022/09/21 00:30:32;;;;;;;2.00;1.23;;;7.00;99.90;;;;;;5033683;28;20284;-79
2022/09/21 00:33:00;;;;;;;2.58;2.38;;;7.00;99.90;;;;;;5033679;28;20216;-79
2022/09/21 00:35:27;;;;;;;2.25;2.08;;;6.90;99.90;;;;;;5032266;28;20208;-79
2022/09/21 00:37:54;;;;;;;2.20;2.00;;;6.80;99.90;;;;;;5033805;28;20184;-79
2022/09/21 00:40:21;;;;;;;3.13;2.13;;;6.80;99.90;;;;;;5033768;28;20236;-79
2022/09/21 00:42:48;;;;;;;2.97;1.63;;;6.80;99.90;;;;;;5034022;28;20197;-79
2022/09/21 00:45:19;;;;;;;1.83;1.73;;;6.90;99.90;;;;;;5034540;28;20231;-79
2022/09/21 00:47:50;;;;;;;1.30;1.23;;;6.90;99.90;;;;;;5034876;28;20228;-80
2022/09/21 00:50:21;;;;;;;2.00;1.00;;;6.80;99.90;;;;;;5033043;28;20573;-79
2022/09/21 00:52:51;;;;;;;2.03;1.80;;;7.60;99.90;;;;;;5033640;28;20631;-79
2022/09/21 00:55:22;;;;;;;1.90;1.40;;;6.90;99.90;;;;;;5034571;28;20207;-79
2022/09/21 00:57:54;;;;;;;1.83;1.73;;;6.70;99.90;;;;;;5032680;28;20205;-79
2022/09/21 01:00:21;;;;;;;2.38;1.38;;;6.70;99.90;;;;;;5034521;28;20222;-79
2022/09/21 01:02:48;;;;;;;3.05;1.88;;;6.50;99.90;;;;;;5029452;28;20202;-79
2022/09/21 01:05:15;;;;;;;2.20;1.63;;;6.50;99.90;;;;;;5034146;28;20296;-79
2022/09/21 01:07:47;;;;;;;1.90;1.10;;;6.60;99.90;;;;;;5033962;28;20203;-79
2022/09/21 01:10:17;;;;;;;4.07;2.33;;;6.50;99.90;;;;;;5035153;28;20216;-78
2022/09/21 01:12:55;;;;;;;1.50;1.20;;;6.50;99.90;;;;;;5038274;28;20211;-80
2022/09/21 01:15:35;;;;;;;1.58;1.48;;;6.50;99.90;;;;;;5037519;28;20196;-79
2022/09/21 01:18:11;;;;;;;2.90;2.55;;;6.50;99.90;;;;;;5042541;28;20279;-79
2022/09/21 01:21:15;;;;;;;4.53;3.33;;;6.40;99.90;;;;;;5042843;28;20220;-79
2022/09/21 01:24:06;;;;;;;1.85;1.58;;;6.40;99.90;;;;;;5025780;28;20701;-79
2022/09/21 01:26:53;;;;;;;2.92;2.55;;;6.40;99.90;;;;;;5043674;28;20211;-79
2022/09/21 01:29:26;;;;;;;1.73;1.25;;;6.60;99.90;;;;;;5039832;28;20274;-79
2022/09/21 01:31:58;;;;;;;2.22;2.03;;;6.60;99.90;;;;;;5039230;28;20209;-78
2022/09/21 01:34:29;;;;;;;2.08;1.33;;;6.70;99.90;;;;;;5037646;28;20200;-79
2022/09/21 01:37:01;;;;;;;1.45;1.30;;;6.40;99.90;;;;;;5040328;28;20204;-79
2022/09/21 01:39:30;;;;;;;1.30;1.20;;;6.40;99.90;;;;;;5038284;28;20204;-78
2022/09/21 01:41:58;;;;;;;2.55;1.90;;;6.60;99.90;;;;;;5037832;28;20200;-79
2022/09/21 01:44:32;;;;;;;1.85;1.75;;;6.40;99.90;;;;;;5037977;28;20691;-79
2022/09/21 01:47:00;;;;;;;1.25;1.10;;;6.40;99.90;;;;;;5039059;28;20228;-79
2022/09/21 01:49:33;;;;;;;1.70;1.40;;;6.20;99.90;;;;;;5039142;28;20197;-79
2022/09/21 01:52:06;;;;;;;2.13;1.98;;;6.30;99.90;;;;;;5038600;28;20250;-79
2022/09/21 01:54:39;;;;;;;3.05;2.00;;;6.30;99.90;;;;;;5037915;28;20936;-79
2022/09/21 01:57:11;;;;;;;2.35;1.30;;;6.30;99.90;;;;;;5037622;28;20189;-81
2022/09/21 01:59:46;;;;;;;2.67;2.50;;;6.20;99.90;;;;;;5035555;28;20272;-79
2022/09/21 02:02:17;;;;;;;1.58;1.48;;;6.20;99.90;;;;;;5038549;28;20219;-80
2022/09/21 02:04:44;;;;;;;1.63;1.52;;;5.90;99.90;;;;;;5036223;28;20690;-80
2022/09/21 02:07:11;;;;;;;2.70;1.70;;;6.10;99.90;;;;;;5036859;28;20260;-80
2022/09/21 02:09:39;;;;;;;2.28;1.17;;;6.20;99.90;;;;;;5039377;28;20636;-79
2022/09/21 02:12:06;;;;;;;3.40;2.13;;;6.10;99.90;;;;;;5039147;28;20224;-81
2022/09/21 02:14:35;;;;;;;2.05;1.40;;;6.10;99.90;;;;;;5040675;28;20231;-79
2022/09/21 02:17:14;;;;;;;18.42;1.83;;;5.60;99.90;;;;;;5038567;28;20735;-80
2022/09/21 02:19:49;;;;;;;2.08;1.85;;;6.00;99.90;;;;;;5036984;28;20200;-80
2022/09/21 02:22:23;;;;;;;2.80;1.80;;;6.00;99.90;;;;;;5046589;28;20191;-79
2022/09/21 02:24:55;;;;;;;2.03;1.45;;;5.60;99.90;;;;;;5051730;28;20204;-79
2022/09/21 02:27:32;;;;;;;3.35;2.42;;;6.00;99.90;;;;;;5038804;28;20201;-78
2022/09/21 02:30:07;;;;;;;1.38;1.30;;;6.10;99.90;;;;;;5039219;28;20212;-80
2022/09/21 02:32:49;;;;;;;2.85;2.63;;;6.10;99.90;;;;;;5039529;28;20554;-79
2022/09/21 02:35:29;;;;;;;2.28;1.70;;;6.00;99.90;;;;;;5040075;28;20204;-80
2022/09/21 02:38:08;;;;;;;1.40;1.13;;;5.80;99.90;;;;;;5039386;28;20208;-79
2022/09/21 02:40:40;;;;;;;1.65;1.55;;;5.90;99.90;;;;;;5039542;28;20224;-79
2022/09/21 02:43:14;;;;;;;2.10;1.90;;;5.90;99.90;;;;;;5040356;28;20208;-80
2022/09/21 02:45:47;;;;;;;2.55;2.35;;;5.90;99.90;;;;;;5040548;28;20192;-79
2022/09/21 02:48:21;;;;;;;1.30;1.05;;;5.90;99.90;;;;;;5040654;28;20697;-79
2022/09/21 02:50:53;;;;;;;1.58;1.48;;;6.00;99.90;;;;;;5040213;28;20188;-79
2022/09/21 02:53:25;;;;;;;1.75;1.65;;;5.80;99.90;;;;;;5040937;28;20219;-79
2022/09/21 02:55:54;;;;;;;2.20;1.98;;;5.80;99.90;;;;;;5040759;28;20192;-78
2022/09/21 02:58:22;;;;;;;1.42;1.13;;;5.80;99.90;;;;;;5036305;28;20203;-78
2022/09/21 03:00:49;;;;;;;2.92;1.30;;;8.00;99.90;;;;;;5040617;28;20331;-78
2022/09/21 03:03:20;;;;;;;2.63;1.83;;;5.90;99.90;;;;;;5041106;28;20223;-80
2022/09/21 03:05:49;;;;;;;3.55;2.30;;;6.00;99.90;;;;;;5040783;28;20207;-78
2022/09/21 03:08:15;;;;;;;2.85;2.05;;;6.10;99.90;;;;;;5041614;28;20205;-78
2022/09/21 03:10:42;;;;;;;1.80;1.58;;;6.20;99.90;;;;;;5041619;28;20225;-78
2022/09/21 03:13:10;;;;;;;5.00;1.95;;;6.30;99.90;;;;;;5042184;28;20200;-78
2022/09/21 03:15:37;;;;;;;1.30;1.00;;;6.30;99.90;;;;;;5041005;28;20188;-78
2022/09/21 03:18:04;;;;;;;2.50;2.30;;;6.10;99.90;;;;;;5040986;28;20201;-78
2022/09/21 03:20:33;;;;;;;1.80;1.38;;;6.10;99.90;;;;;;5042011;28;20248;-78
2022/09/21 03:23:00;;;;;;;2.17;2.00;;;6.10;99.90;;;;;;5041086;28;20209;-78
2022/09/21 03:25:27;;;;;;;1.50;1.40;;;6.10;99.90;;;;;;5041430;28;20201;-78
2022/09/21 03:27:54;;;;;;;2.75;1.70;;;6.00;99.90;;;;;;5041725;28;20675;-78
2022/09/21 03:30:23;;;;;;;2.33;2.13;;;6.00;99.90;;;;;;5040658;28;20197;-79
2022/09/21 03:32:51;;;;;;;3.08;1.85;;;6.00;99.90;;;;;;5041083;28;20265;-78
2022/09/21 03:35:18;;;;;;;2.55;2.35;;;6.00;99.90;;;;;;5041406;28;20258;-78
2022/09/21 03:37:48;;;;;;;4.63;3.15;;;6.00;99.90;;;;;;5039218;28;20719;-79
2022/09/21 03:40:16;;;;;;;2.88;2.67;;;6.00;99.90;;;;;;5036501;28;20251;-78
2022/09/21 03:42:43;;;;;;;0.98;0.80;;;6.10;99.90;;;;;;5039264;28;20205;-79
2022/09/21 03:45:12;;;;;;;4.20;2.47;;;6.10;99.90;;;;;;5035412;28;20224;-79
2022/09/21 03:47:39;;;;;;;2.20;1.42;;;6.10;99.90;;;;;;5039535;28;20288;-78
2022/09/21 03:50:07;;;;;;;3.97;2.75;;;6.10;99.90;;;;;;5036742;28;20209;-80
2022/09/21 03:52:36;;;;;;;4.30;3.00;;;6.00;99.90;;;;;;5038778;28;20280;-79
2022/09/21 03:55:05;;;;;;;10.23;2.20;;;6.00;99.90;;;;;;5040487;28;20211;-78
2022/09/21 03:57:33;;;;;;;3.30;3.00;;;6.00;99.90;;;;;;5038621;28;20204;-79
2022/09/21 04:00:01;;;;;;;3.30;2.25;;;5.80;99.90;;;;;;5040401;28;20243;-78
2022/09/21 04:02:28;;;;;;;2.33;2.22;;;5.90;99.90;;;;;;5040051;28;20235;-78
2022/09/21 04:04:55;;;;;;;4.70;2.42;;;5.90;99.90;;;;;;5040723;28;20200;-77
2022/09/21 04:07:21;;;;;;;2.67;2.35;;;6.00;99.90;;;;;;5038773;28;20196;-78
2022/09/21 04:09:48;;;;;;;2.47;2.08;;;5.90;99.90;;;;;;5040084;28;20256;-78
2022/09/21 04:12:16;;;;;;;3.67;2.38;;;5.90;99.90;;;;;;5038893;28;20683;-78
2022/09/21 04:14:43;;;;;;;2.47;2.28;;;5.70;99.90;;;;;;5039878;28;20297;-78
2022/09/21 04:17:10;;;;;;;3.28;1.98;;;5.80;99.90;;;;;;5038858;28;20193;-78
2022/09/21 04:19:37;;;;;;;2.42;1.80;;;5.70;99.90;;;;;;5039645;28;20215;-78
2022/09/21 04:22:05;;;;;;;2.88;1.50;;;5.70;99.90;;;;;;5039954;28;20278;-77
2022/09/21 04:24:32;;;;;;;4.35;2.30;;;5.70;99.90;;;;;;5040217;28;20229;-78
2022/09/21 04:26:59;;;;;;;2.95;2.53;;;5.70;99.90;;;;;;5040342;28;20203;-77
2022/09/21 04:29:27;;;;;;;2.47;1.65;;;5.60;99.90;;;;;;5041014;28;20288;-78
2022/09/21 04:31:53;;;;;;;1.98;1.88;;;5.60;99.90;;;;;;5034426;28;21885;-77
2022/09/21 04:34:20;;;;;;;3.40;1.55;;;5.60;99.90;;;;;;5029466;28;20196;-78
2022/09/21 04:36:47;;;;;;;13.25;2.70;;;5.50;99.90;;;;;;5029696;28;20204;-78
2022/09/21 04:39:14;;;;;;;3.28;2.38;;;5.50;99.90;;;;;;5028214;28;20246;-78
2022/09/21 04:41:42;;;;;;;2.55;2.35;;;5.60;99.90;;;;;;5029307;28;20252;-78
2022/09/21 04:44:09;;;;;;;2.20;2.00;;;5.60;99.90;;;;;;5032549;28;20663;-78
2022/09/21 04:46:38;;;;;;;2.33;2.08;;;5.60;99.90;;;;;;5029679;28;20201;-78
2022/09/21 04:49:05;;;;;;;3.47;3.08;;;5.50;99.90;;;;;;5031507;28;20225;-78
2022/09/21 04:51:31;;;;;;;3.80;2.58;;;5.50;99.90;;;;;;5034517;28;20252;-78
2022/09/21 04:53:58;;;;;;;9.00;2.63;;;5.50;99.90;;;;;;5040066;28;20205;-78
2022/09/21 04:56:25;;;;;;;5.55;1.95;;;5.40;99.90;;;;;;5037797;28;20192;-77
2022/09/21 04:58:52;;;;;;;2.55;2.35;;;5.40;99.90;;;;;;5039733;28;20196;-77
2022/09/21 05:01:18;;;;;;;3.20;1.92;;;5.40;99.90;;;;;;5039517;28;20232;-76
2022/09/21 05:03:47;;;;;;;1.92;1.73;;;5.40;99.90;;;;;;5039879;28;20205;-77
2022/09/21 05:06:13;;;;;;;1.90;1.60;;;5.40;99.90;;;;;;5034325;28;20259;-77
2022/09/21 05:11:33;;;;;;;2.45;1.92;;;5.40;99.90;;;;;;4999353;28;20211;-77
2022/09/21 05:14:00;;;;;;;4.65;3.42;;;5.40;99.90;;;;;;5038913;28;20209;-77
2022/09/21 05:16:27;;;;;;;3.28;2.97;;;5.40;99.90;;;;;;5036296;28;20214;-78
2022/09/21 05:18:55;;;;;;;2.45;2.17;;;5.40;99.90;;;;;;5037282;28;20232;-78
2022/09/21 05:21:22;;;;;;;3.00;1.98;;;5.40;99.90;;;;;;5038318;28;20281;-77
2022/09/21 05:23:48;;;;;;;3.40;2.45;;;5.30;99.90;;;;;;5038117;28;20193;-77
2022/09/21 05:26:15;;;;;;;2.38;2.13;;;5.30;99.90;;;;;;5037741;28;20279;-77
2022/09/21 05:28:43;;;;;;;3.10;2.88;;;5.40;99.90;;;;;;5037896;28;20195;-79
2022/09/21 05:31:26;;;;;;;3.25;2.97;;;5.40;99.90;;;;;;5037296;28;20291;-78
2022/09/21 05:33:58;;;;;;;2.30;2.20;;;5.40;99.90;;;;;;5033977;28;20189;-77
2022/09/21 05:36:39;;;;;;;2.30;2.15;;;5.40;99.90;;;;;;5036936;28;20209;-79
2022/09/21 05:39:06;;;;;;;2.30;1.40;;;5.40;99.90;;;;;;5030934;28;20205;-81
2022/09/21 05:41:34;;;;;;;3.33;2.63;;;5.40;99.90;;;;;;5035465;28;20219;-77
2022/09/21 05:44:02;;;;;;;2.83;2.00;;;5.40;99.90;;;;;;5032077;28;20816;-77
2022/09/21 05:46:37;;;;;;;4.28;3.88;;;5.50;99.90;;;;;;5036559;28;20228;-78
2022/09/21 05:49:14;;;;;;;5.25;2.70;;;5.50;99.90;;;;;;5037638;28;20718;-77
2022/09/21 05:51:53;;;;;;;2.83;2.03;;;5.50;99.90;;;;;;5038280;28;20554;-78
2022/09/21 05:54:27;;;;;;;2.17;2.00;;;5.70;99.90;;;;;;5036723;28;20976;-77
2022/09/21 05:57:01;;;;;;;2.97;2.30;;;5.70;99.90;;;;;;5032063;28;20747;-77
2022/09/21 05:59:50;;;;;;;2.70;2.40;;;5.70;99.90;;;;;;5038388;28;21021;-77
2022/09/21 06:02:27;;;;;;;2.10;1.90;;;5.80;99.90;;;;;;5036081;28;20308;-78
2022/09/21 06:04:57;;;;;;;3.17;1.83;;;5.80;99.90;;;;;;5026777;28;20203;-77
2022/09/21 06:07:24;;;;;;;2.45;2.10;;;5.80;99.90;;;;;;5041258;28;20281;-78
2022/09/21 06:09:51;;;;;;;1.88;1.60;;;5.90;99.90;;;;;;5047401;28;20200;-77
2022/09/21 06:12:18;;;;;;;3.00;2.78;;;6.00;99.90;;;;;;5042094;28;20693;-77
2022/09/21 06:14:45;;;;;;;3.85;3.05;;;6.10;99.90;;;;;;5039729;28;20200;-77
2022/09/21 06:17:11;;;;;;;3.55;2.53;;;6.20;99.90;;;;;;5036665;28;20284;-78
2022/09/21 06:19:38;;;;;;;3.25;3.00;;;6.30;99.90;;;;;;5041318;28;20883;-78
2022/09/21 06:22:06;;;;;;;3.15;2.63;;;6.30;99.90;;;;;;5040736;28;20243;-77
2022/09/21 06:24:33;;;;;;;3.80;3.47;;;6.40;99.90;;;;;;5039443;28;20451;-76
2022/09/21 06:27:00;;;;;;;4.03;3.13;;;6.50;99.90;;;;;;5041714;28;20245;-77
2022/09/21 06:29:27;;;;;;;4.28;2.83;;;6.60;99.90;;;;;;5040570;28;20251;-77
2022/09/21 06:31:53;;;;;;;3.03;2.28;;;6.70;99.90;;;;;;5040595;28;20573;-77
2022/09/21 06:34:20;;;;;;;3.42;3.05;;;6.80;99.90;;;;;;5039258;28;20304;-77
2022/09/21 06:36:47;;;;;;;4.68;2.60;;;6.90;99.90;;;;;;5039731;28;20192;-77
2022/09/21 06:39:15;;;;;;;4.22;3.53;;;7.10;99.90;;;;;;5041400;28;20562;-77
2022/09/21 06:41:42;;;;;;;3.08;2.50;;;7.20;99.90;;;;;;5040473;28;20220;-78
2022/09/21 06:44:09;;;;;;;4.43;2.58;;;7.20;99.90;;;;;;5037917;28;20209;-77
2022/09/21 06:46:35;;;;;;;6.82;2.75;;;7.40;99.90;;;;;;5038093;28;20199;-77
2022/09/21 06:49:02;;;;;;;3.80;2.72;;;7.60;99.90;;;;;;5039864;28;20291;-77
2022/09/21 06:51:29;;;;;;;2.50;2.30;;;7.70;99.90;;;;;;5036925;28;21072;-77
2022/09/21 06:53:57;;;;;;;3.15;2.65;;;7.90;99.90;;;;;;5036864;28;20313;-78
2022/09/21 06:56:25;;;;;;;4.15;2.85;;;8.10;99.90;;;;;;5034977;28;20204;-77
2022/09/21 06:58:52;;;;;;;3.40;2.80;;;8.40;99.90;;;;;;5029679;28;20260;-79
2022/09/21 07:01:19;;;;;;;3.07;2.77;;;8.40;99.90;;;;;;5036841;28;20698;-77
2022/09/21 07:03:49;;;;;;;3.37;3.03;;;8.50;99.90;;;;;;5033833;28;20627;-77
2022/09/21 07:06:16;;;;;;;4.60;2.80;;;8.60;99.90;;;;;;5027195;28;20629;-79
2022/09/21 07:08:44;;;;;;;3.83;3.20;;;8.80;99.90;;;;;;5027353;28;20682;-77
2022/09/21 07:11:12;;;;;;;3.37;2.17;;;9.10;99.90;;;;;;5033441;28;20216;-77
2022/09/21 07:13:41;;;;;;;3.30;2.33;;;8.90;99.90;;;;;;5029781;28;20723;-76
2022/09/21 07:16:09;;;;;;;4.37;2.70;;;8.80;99.90;;;;;;5028298;28;20695;-79
2022/09/21 07:18:37;;;;;;;3.57;2.63;;;8.90;99.90;;;;;;5031642;28;20639;-78
2022/09/21 07:21:05;;;;;;;3.40;3.10;;;8.70;99.90;;;;;;5028546;28;20708;-77
2022/09/21 07:23:32;;;;;;;6.63;2.33;;;8.70;99.90;;;;;;5035586;28;21461;-78
2022/09/21 07:26:03;;;;;;;1.70;1.60;;;8.80;99.90;;;;;;5036782;28;20961;-77
2022/09/21 07:28:30;;;;;;;2.70;2.50;;;8.90;99.90;;;;;;5038676;28;20631;-77
2022/09/21 07:30:58;;;;;;;2.33;2.10;;;9.10;99.90;;;;;;5034065;28;20644;-77
2022/09/21 07:33:26;;;;;;;5.20;2.57;;;9.30;99.90;;;;;;5035162;28;20665;-77
2022/09/21 07:35:55;;;;;;;1.93;1.70;;;9.40;99.90;;;;;;5035070;28;20639;-77
2022/09/21 07:38:23;;;;;;;2.33;2.13;;;9.60;99.90;;;;;;5036286;28;20624;-78
2022/09/21 07:40:50;;;;;;;1.80;1.70;;;9.60;99.90;;;;;;5035046;28;20623;-78
2022/09/21 07:43:17;;;;;;;2.03;1.93;;;9.80;99.90;;;;;;5034287;28;20663;-78
2022/09/21 07:45:44;;;;;;;2.73;2.50;;;9.90;99.90;;;;;;5033551;28;20622;-78
2022/09/21 07:48:12;;;;;;;2.27;1.57;;;10.20;99.90;;;;;;5032707;28;20666;-77
2022/09/21 07:50:39;;;;;;;1.50;1.40;;;10.30;99.90;;;;;;5031953;28;20723;-78
2022/09/21 07:53:06;;;;;;;3.80;1.70;;;10.40;99.90;;;;;;5030836;28;20726;-81
2022/09/21 07:55:33;;;;;;;1.97;1.73;;;10.50;99.90;;;;;;5031078;28;20619;-77
2022/09/21 08:00:44;;;;;;;1.80;1.70;;;10.80;99.90;;;;;;5031759;28;20631;-77
2022/09/21 08:03:12;;;;;;;1.23;1.10;;;10.80;99.90;;;;;;5031882;28;20679;-78
2022/09/21 08:05:39;;;;;;;1.60;1.50;;;10.90;99.90;;;;;;5034175;28;20701;-78
2022/09/21 08:08:06;;;;;;;1.43;1.33;;;10.90;99.90;;;;;;5033688;28;21215;-79
2022/09/21 08:10:34;;;;;;;3.67;1.80;;;11.20;99.90;;;;;;5033689;28;21214;-77
2022/09/21 08:13:01;;;;;;;3.60;1.60;;;11.40;99.90;;;;;;5035423;28;20627;-78
2022/09/21 08:15:28;;;;;;;4.10;1.50;;;11.50;99.10;;;;;;5032673;28;20627;-78
2022/09/21 08:17:55;;;;;;;2.63;1.03;;;11.60;98.60;;;;;;5031502;28;20635;-78
2022/09/21 08:20:23;;;;;;;1.00;0.73;;;11.50;98.80;;;;;;5034227;28;21231;-78
2022/09/21 08:22:52;;;;;;;1.33;1.23;;;11.70;98.60;;;;;;5038905;28;20671;-77
2022/09/21 08:25:20;;;;;;;1.50;1.40;;;11.80;98.00;;;;;;5036939;28;20624;-78
2022/09/21 08:27:47;;;;;;;1.40;1.30;;;11.90;98.10;;;;;;5035776;28;20617;-78
2022/09/21 08:30:14;;;;;;;2.43;1.30;;;11.90;97.90;;;;;;5035739;28;20686;-79
2022/09/21 08:32:41;;;;;;;1.38;1.10;;;12.00;98.40;;;;;;5036676;28;20750;-78
2022/09/21 08:35:09;;;;;;;0.83;0.83;;;12.20;97.90;;;;;;5035126;28;20204;-78
2022/09/21 08:37:37;;;;;;;1.23;1.13;;;12.20;98.00;;;;;;5037771;28;20638;-77
2022/09/21 08:40:06;;;;;;;1.13;1.03;;;12.50;96.90;;;;;;5036780;28;20635;-78
2022/09/21 08:42:48;;;;;;;1.40;1.30;;;12.40;96.80;;;;;;5034271;28;20670;-78
2022/09/21 08:45:18;;;;;;;1.20;1.10;;;12.50;96.90;;;;;;5034594;28;20691;-78
2022/09/21 08:47:48;;;;;;;1.27;1.17;;;12.50;97.90;;;;;;5036636;28;20631;-78
2022/09/21 08:50:32;;;;;;;1.80;1.30;;;12.40;97.50;;;;;;5028271;28;20641;-78
2022/09/21 08:53:06;;;;;;;0.80;0.80;;;12.60;97.80;;;;;;5021714;28;20635;-78
2022/09/21 08:55:33;;;;;;;1.07;1.03;;;12.70;97.20;;;;;;5029269;28;20621;-78
2022/09/21 08:58:00;;;;;;;0.80;0.80;;;12.80;96.70;;;;;;5022542;28;20624;-78
2022/09/21 09:00:29;;;;;;;0.87;0.83;;;12.80;96.70;;;;;;5014529;28;20616;-78
2022/09/21 09:03:35;;;;;;;0.70;0.70;;;12.80;96.80;;;;;;5035697;28;20667;-78
2022/09/21 09:06:10;;;;;;;0.77;0.77;;;13.00;95.80;;;;;;5030046;28;20628;-78
2022/09/21 09:09:10;;;;;;;0.60;0.60;;;13.10;96.10;;;;;;5037235;28;20721;-78
2022/09/21 09:11:51;;;;;;;0.80;0.57;;;13.10;95.60;;;;;;5028025;28;20632;-78
2022/09/21 09:14:41;;;;;;;0.77;0.70;;;13.20;94.20;;;;;;5023676;28;20657;-79
2022/09/21 09:17:25;;;;;;;2.57;0.73;;;13.40;93.70;;;;;;5027919;28;20662;-79
2022/09/21 09:19:58;;;;;;;0.83;0.83;;;13.40;94.10;;;;;;5033267;28;20738;-79
2022/09/21 09:22:30;;;;;;;0.50;0.50;;;13.40;94.00;;;;;;5034060;28;20690;-79
2022/09/21 09:25:03;;;;;;;0.70;0.70;;;13.60;93.10;;;;;;5033722;28;20726;-78
2022/09/21 09:27:34;;;;;;;1.10;1.00;;;13.60;92.60;;;;;;5030551;28;20627;-78
2022/09/21 09:30:04;;;;;;;0.70;0.70;;;13.60;93.30;;;;;;5034494;28;20695;-79
2022/09/21 09:32:39;;;;;;;0.50;0.40;;;13.70;92.20;;;;;;5035404;28;20684;-78
2022/09/21 09:35:17;;;;;;;0.57;0.57;;;13.80;92.40;;;;;;5034549;28;20653;-80
2022/09/21 09:37:47;;;;;;;0.60;0.60;;;13.80;92.20;;;;;;5021470;28;21574;-78
2022/09/21 09:40:19;;;;;;;0.47;0.40;;;13.70;92.40;;;;;;5035076;28;20627;-80
2022/09/21 09:42:56;;;;;;;1.03;0.77;;;13.80;91.60;;;;;;5036114;28;20660;-79
2022/09/21 09:45:38;;;;;;;0.70;0.70;;;13.80;91.40;;;;;;5037422;28;20680;-78
2022/09/21 09:48:23;;;;;;;0.80;0.50;;;13.90;91.00;;;;;;5027949;28;20646;-78
2022/09/21 09:50:50;;;;;;;2.70;0.70;;;13.90;91.10;;;;;;5037532;28;20631;-79
2022/09/21 09:53:20;;;;;;;0.70;0.50;;;14.00;91.90;;;;;;5037077;28;20722;-78
2022/09/21 09:55:51;;;;;;;0.83;0.60;;;14.10;92.40;;;;;;5036075;28;20615;-79
2022/09/21 09:58:19;;;;;;;0.40;0.40;;;14.10;92.50;;;;;;5037675;28;20707;-79
2022/09/21 10:00:49;;;;;;;0.90;0.90;;;14.10;92.40;;;;;;5037020;28;20635;-79
2022/09/21 10:03:18;;;;;;;0.83;0.83;;;14.20;91.30;;;;;;5031568;28;21015;-79
2022/09/21 10:05:45;;;;;;;0.40;0.40;;;14.30;91.60;;;;;;5037100;28;20616;-79
2022/09/21 10:08:40;;;;;;;1.77;0.90;;;14.40;91.40;;;;;;5036734;28;20630;-79
2022/09/21 10:11:10;;;;;;;0.73;0.50;;;14.30;91.10;;;;;;5029278;28;20643;-79
2022/09/21 10:13:38;;;;;;;0.60;0.60;;;14.40;91.10;;;;;;5040383;28;20727;-79
2022/09/21 10:16:11;;;;;;;0.73;0.73;;;14.20;91.20;;;;;;5040941;28;20684;-78
2022/09/21 10:18:40;;;;;;;0.40;0.40;;;14.10;91.40;;;;;;5028931;28;20641;-79
2022/09/21 10:21:09;;;;;;;0.67;0.67;;;14.00;90.90;;;;;;5034152;28;20726;-79
2022/09/21 10:23:37;;;;;;;1.10;0.90;;;14.00;92.40;;;;;;5042492;28;20671;-79
2022/09/21 10:26:08;;;;;;;0.40;0.40;;;13.90;92.70;;;;;;5042077;28;20677;-78
2022/09/21 10:28:37;;;;;;;0.90;0.53;;;14.00;92.10;;;;;;5042609;28;20619;-80
2022/09/21 10:31:16;;;;;;;0.57;0.57;;;13.80;92.50;;;;;;5032057;28;20654;-80
2022/09/21 10:33:50;;;;;;;1.10;1.10;;;13.70;92.40;;;;;;5039000;28;20666;-79
2022/09/21 10:36:29;;;;;;;0.97;0.80;;;13.80;91.60;;;;;;5041074;28;20627;-80
2022/09/21 10:38:56;;;;;;;0.80;0.80;;;13.80;92.30;;;;;;5042616;28;20630;-79
2022/09/21 10:41:24;;;;;;;0.83;0.83;;;13.70;92.30;;;;;;5041404;28;20703;-79
2022/09/21 10:43:53;;;;;;;1.43;0.83;;;13.70;92.40;;;;;;5042137;28;20758;-79
2022/09/21 10:46:33;;;;;;;0.60;0.60;;;13.70;92.40;;;;;;5040802;28;20650;-78
2022/09/21 10:49:01;;;;;;;1.70;1.10;;;13.60;92.60;;;;;;5041411;28;20626;-79
2022/09/21 10:51:30;;;;;;;0.40;0.30;;;13.80;91.80;;;;;;5041891;28;20703;-78
2022/09/21 10:53:57;;;;;;;1.07;0.70;;;13.90;91.60;;;;;;5042105;28;21200;-79
2022/09/21 10:56:25;;;;;;;1.63;0.67;;;14.00;90.90;;;;;;5039967;28;20658;-78
2022/09/21 10:59:20;;;;;;;0.53;0.53;;;14.10;90.50;;;;;;5038697;28;20619;-78
2022/09/21 11:01:49;;;;;;;0.80;0.67;;;14.10;91.30;;;;;;5038709;28;20630;-78
2022/09/21 11:04:33;;;;;;;1.73;1.50;;;14.10;90.50;;;;;;5022552;28;20698;-77
2022/09/21 11:07:11;;;;;;;0.50;0.50;;;14.30;90.50;;;;;;5037414;28;21028;-78
2022/09/21 11:09:42;;;;;;;1.00;0.90;;;14.20;90.30;;;;;;5041738;28;20655;-78
2022/09/21 11:12:35;;;;;;;0.50;0.50;;;14.30;89.40;;;;;;5020964;28;20704;-79
2022/09/21 11:15:15;;;;;;;0.70;0.70;;;14.30;90.00;;;;;;5035246;28;20695;-79
2022/09/21 11:17:47;;;;;;;0.83;0.60;;;14.50;88.00;;;;;;5041941;28;20664;-78
2022/09/21 11:20:22;;;;;;;0.40;0.40;;;14.50;87.00;;;;;;5041533;28;21213;-78
2022/09/21 11:22:56;;;;;;;0.50;0.50;;;14.30;87.20;;;;;;5041613;28;20654;-79
2022/09/21 11:25:36;;;;;;;0.60;0.60;;;14.30;88.10;;;;;;5037867;28;20619;-78
2022/09/21 11:28:13;;;;;;;2.73;0.80;;;14.60;86.10;;;;;;5041730;28;20639;-79
2022/09/21 11:31:01;;;;;;;0.40;0.30;;;14.50;86.80;;;;;;5041395;28;20697;-78
2022/09/21 11:33:40;;;;;;;0.40;0.40;;;14.50;84.30;;;;;;5031005;28;20632;-79
2022/09/21 11:36:17;;;;;;;0.47;0.40;;;14.50;83.90;;;;;;5038270;28;20726;-79
2022/09/21 11:38:54;;;;;;;0.93;0.40;;;14.40;84.30;;;;;;5040634;28;20635;-78
2022/09/21 11:41:38;;;;;;;0.70;0.60;;;14.70;84.70;;;;;;5039577;28;20624;-78
2022/09/21 11:44:26;;;;;;;0.30;0.30;;;14.80;84.50;;;;;;5037514;28;20694;-79
2022/09/21 11:47:05;;;;;;;0.63;0.40;;;14.60;84.30;;;;;;5040942;28;20646;-79
2022/09/21 11:49:55;;;;;;;0.73;0.70;;;14.70;85.60;;;;;;5041640;28;20658;-79
2022/09/21 11:52:37;;;;;;;0.47;0.47;;;15.10;84.30;;;;;;5027579;28;20623;-79
2022/09/21 11:55:21;;;;;;;0.47;0.47;;;15.10;83.00;;;;;;5039076;28;20635;-81
2022/09/21 11:57:58;;;;;;;0.53;0.53;;;15.00;84.60;;;;;;5029870;28;20628;-79
2022/09/21 12:00:28;;;;;;;0.40;0.40;;;14.90;87.50;;;;;;5033850;28;20650;-79
2022/09/21 12:03:26;;;;;;;0.60;0.60;;;15.00;86.50;;;;;;5038330;28;20619;-79
2022/09/21 12:06:11;;;;;;;0.83;0.73;;;15.10;86.00;;;;;;5038982;28;20658;-79
2022/09/21 12:09:11;;;;;;;0.30;0.30;;;15.20;86.50;;;;;;5033290;28;20634;-80
2022/09/21 12:11:43;;;;;;;1.03;0.63;;;15.30;83.30;;;;;;5031323;28;20670;-79
2022/09/21 12:14:21;;;;;;;0.60;0.43;;;15.40;85.50;;;;;;5030763;28;20638;-78
2022/09/21 12:16:57;;;;;;;0.50;0.40;;;15.30;86.20;;;;;;5037793;28;20635;-79
2022/09/21 12:19:35;;;;;;;0.60;0.60;;;15.30;83.10;;;;;;5031972;28;20734;-80
2022/09/21 12:22:07;;;;;;;0.43;0.40;;;15.20;80.70;;;;;;5036265;28;20627;-79
2022/09/21 12:24:39;;;;;;;0.97;0.50;;;15.30;81.30;;;;;;5036420;28;20714;-79
2022/09/21 12:27:19;;;;;;;0.50;0.37;;;15.40;84.60;;;;;;5033672;28;20624;-82
2022/09/21 12:29:52;;;;;;;0.60;0.50;;;15.50;81.20;;;;;;5031883;28;20641;-80
2022/09/21 12:32:26;;;;;;;0.57;0.43;;;15.50;82.70;;;;;;5033918;28;20630;-79
2022/09/21 12:34:58;;;;;;;0.57;0.57;;;15.70;81.40;;;;;;5033206;28;20631;-80
2022/09/21 12:37:31;;;;;;;0.60;0.60;;;15.60;84.30;;;;;;5036710;28;20718;-79
2022/09/21 12:40:05;;;;;;;0.70;0.40;;;15.40;85.10;;;;;;5032847;28;20742;-79
2022/09/21 12:42:38;;;;;;;0.50;0.33;;;15.50;83.80;;;;;;5027044;28;20624;-80
2022/09/21 12:45:13;;;;;;;0.50;0.40;;;15.50;83.90;;;;;;5034651;28;20772;-79
2022/09/21 12:47:52;;;;;;;0.80;0.40;;;15.50;82.20;;;;;;5031734;28;20629;-80
2022/09/21 12:50:27;;;;;;;0.40;0.27;;;15.70;81.50;;;;;;5022278;28;20631;-79
2022/09/21 12:52:56;;;;;;;0.67;0.67;;;15.50;80.10;;;;;;5026949;28;20662;-80
2022/09/21 12:55:40;;;;;;;0.50;0.43;;;15.40;81.70;;;;;;5034340;28;20631;-79
2022/09/21 12:58:14;;;;;;;0.53;0.53;;;15.30;83.50;;;;;;5027057;28;20630;-80
2022/09/21 13:00:48;;;;;;;0.77;0.77;;;15.40;85.30;;;;;;5023380;28;20632;-80
2022/09/21 13:03:20;;;;;;;0.60;0.60;;;15.30;84.10;;;;;;5028103;28;20641;-80
2022/09/21 13:06:07;;;;;;;0.67;0.40;;;15.10;82.80;;;;;;5021188;28;20608;-79
2022/09/21 13:08:38;;;;;;;0.40;0.30;;;14.90;84.00;;;;;;5025589;28;20710;-79
2022/09/21 13:11:07;;;;;;;0.40;0.30;;;14.90;85.80;;;;;;5028439;28;20632;-79
2022/09/21 13:13:38;;;;;;;1.00;0.87;;;15.00;84.70;;;;;;5027963;28;20986;-80
2022/09/21 13:16:06;;;;;;;0.70;0.70;;;15.10;82.50;;;;;;5025464;28;20628;-80
2022/09/21 13:18:38;;;;;;;0.83;0.40;;;15.30;82.30;;;;;;5027048;28;20627;-79
2022/09/21 13:21:25;;;;;;;0.40;0.30;;;15.50;80.60;;;;;;5028698;28;21215;-80